createdAt,value
2018-04-12T19:30:39.239Z,21.56
2018-04-12T19:33:05.805Z,21.50
2018-04-12T19:35:32.318Z,21.56
2018-04-12T19:37:58.802Z,21.56
2018-04-12T19:40:25.096Z,21.60
2018-04-12T19:42:51.339Z,21.59
2018-04-12T19:45:17.818Z,21.56
2018-04-12T19:47:44.092Z,21.50
2018-04-12T19:50:10.355Z,21.58
2018-04-12T19:52:36.674Z,21.64
2018-04-12T19:55:03.611Z,21.60
2018-04-12T19:57:29.964Z,21.56
2018-04-12T19:59:56.376Z,21.53
2018-04-12T20:02:22.650Z,21.55
2018-04-12T20:04:48.888Z,21.52
2018-04-12T20:07:15.265Z,21.58
2018-04-12T20:09:41.551Z,21.53
2018-04-12T20:12:07.830Z,21.29
2018-04-12T20:14:34.107Z,21.07
2018-04-12T20:17:00.483Z,20.94
2018-04-12T20:19:26.788Z,20.92
2018-04-12T20:21:53.094Z,21.00
2018-04-12T20:24:19.417Z,21.05
2018-04-12T20:26:45.715Z,21.12
2018-04-12T20:29:12.055Z,21.13
2018-04-12T20:31:38.307Z,21.11
2018-04-12T20:34:04.595Z,21.07
2018-04-12T20:36:31.013Z,21.04
2018-04-12T20:38:57.251Z,21.14
2018-04-12T20:41:23.787Z,21.06
2018-04-12T20:43:50.099Z,20.97
2018-04-12T20:46:16.719Z,20.92
2018-04-12T20:48:43.048Z,20.93
2018-04-12T20:51:09.357Z,20.94
2018-04-12T20:53:35.612Z,20.87
2018-04-12T20:56:01.856Z,20.92
2018-04-12T20:58:28.155Z,20.84
2018-04-12T21:00:54.387Z,20.77
2018-04-12T21:03:20.627Z,20.71
2018-04-12T21:05:46.915Z,20.64
2018-04-12T21:08:13.262Z,20.55
2018-04-12T21:10:39.531Z,20.49
2018-04-12T21:13:05.803Z,20.42
2018-04-12T21:15:32.277Z,20.40
2018-04-12T21:17:58.535Z,20.32
2018-04-12T21:20:24.795Z,20.29
2018-04-12T21:22:51.031Z,20.20
2018-04-12T21:25:17.300Z,20.18
2018-04-12T21:27:43.726Z,20.15
2018-04-12T21:30:09.987Z,20.09
2018-04-12T21:32:36.220Z,19.97
2018-04-12T21:35:02.504Z,19.89
2018-04-12T21:37:28.776Z,19.79
2018-04-12T21:39:55.231Z,19.72
2018-04-12T21:42:22.879Z,19.73
2018-04-12T21:44:50.151Z,19.64
2018-04-12T21:47:16.405Z,19.53
2018-04-12T21:49:42.703Z,19.55
2018-04-12T21:52:09.417Z,19.60
2018-04-12T21:54:36.868Z,19.62
2018-04-12T21:57:03.167Z,19.66
2018-04-12T21:59:29.439Z,19.76
2018-04-12T22:01:55.808Z,19.83
2018-04-12T22:04:22.122Z,19.87
2018-04-12T22:06:48.399Z,19.88
2018-04-12T22:09:14.683Z,19.86
2018-04-12T22:11:40.975Z,19.91
2018-04-12T22:14:07.229Z,19.92
2018-04-12T22:16:33.544Z,19.93
2018-04-12T22:18:59.820Z,19.97
2018-04-12T22:21:26.118Z,20.02
2018-04-12T22:23:52.355Z,20.07
2018-04-12T22:26:18.682Z,20.06
2018-04-12T22:28:44.938Z,20.03
2018-04-12T22:31:11.195Z,20.07
2018-04-12T22:33:37.496Z,20.08
2018-04-12T22:36:03.775Z,20.11
2018-04-12T22:38:30.043Z,20.15
2018-04-12T22:40:56.320Z,20.17
2018-04-12T22:43:22.591Z,20.20
2018-04-12T22:45:48.851Z,20.19
2018-04-12T22:48:15.149Z,20.17
2018-04-12T22:50:41.411Z,20.15
2018-04-12T22:53:07.681Z,20.12
2018-04-12T22:55:33.981Z,20.10
2018-04-12T22:58:00.232Z,20.02
2018-04-12T23:00:26.501Z,20.00
2018-04-12T23:02:52.807Z,19.98
2018-04-12T23:05:19.092Z,19.98
2018-04-12T23:07:45.327Z,19.99
2018-04-12T23:10:11.582Z,19.98
2018-04-12T23:12:37.866Z,19.90
2018-04-12T23:15:04.164Z,19.93
2018-04-12T23:17:30.434Z,19.86
2018-04-12T23:19:56.711Z,19.85
2018-04-12T23:22:22.955Z,19.80
2018-04-12T23:24:49.211Z,19.75
2018-04-12T23:27:15.478Z,19.70
2018-04-12T23:29:41.724Z,19.67
2018-04-12T23:32:07.966Z,19.66
2018-04-12T23:34:34.247Z,19.62
2018-04-12T23:37:00.495Z,19.56
2018-04-12T23:39:26.860Z,19.52
2018-04-12T23:41:53.216Z,19.44
2018-04-12T23:44:19.448Z,19.46
2018-04-12T23:46:45.748Z,19.49
2018-04-12T23:49:11.997Z,19.46
2018-04-12T23:51:38.305Z,19.48
2018-04-12T23:54:04.567Z,19.51
2018-04-12T23:56:30.810Z,19.53
2018-04-12T23:58:57.090Z,19.52
